createdAt,value
2023-05-05T00:00:34.921Z,5.91
2023-05-05T00:01:37.995Z,11.08
2023-05-05T00:02:41.097Z,14.92
2023-05-05T00:03:52.555Z,20.80
2023-05-05T00:04:59.270Z,6.83
2023-05-05T00:06:02.271Z,10.41
2023-05-05T00:07:09.877Z,8.32
2023-05-05T00:08:12.761Z,9.34
2023-05-05T00:09:15.834Z,14.27
2023-05-05T00:10:19.667Z,10.81
2023-05-05T00:11:23.226Z,7.97
2023-05-05T00:12:26.807Z,7.02
2023-05-05T00:13:29.914Z,7.79
2023-05-05T00:14:33.125Z,11.42
2023-05-05T00:15:35.840Z,10.89
2023-05-05T00:16:38.806Z,7.49
2023-05-05T00:17:41.672Z,9.92
2023-05-05T00:18:44.560Z,9.62
2023-05-05T00:19:47.659Z,10.47
2023-05-05T00:20:50.637Z,12.44
2023-05-05T00:21:53.603Z,16.98
2023-05-05T00:22:56.471Z,10.64
2023-05-05T00:23:59.351Z,9.92
2023-05-05T00:25:02.563Z,8.12
2023-05-05T00:26:05.519Z,9.91
2023-05-05T00:27:08.384Z,9.96
2023-05-05T00:28:12.984Z,8.77
2023-05-05T00:29:16.402Z,9.81
2023-05-05T00:30:19.365Z,10.32
2023-05-05T00:31:22.379Z,11.38
2023-05-05T00:32:25.344Z,10.25
2023-05-05T00:33:29.633Z,18.73
2023-05-05T00:34:32.397Z,10.01
2023-05-05T00:35:35.690Z,10.35
2023-05-05T00:36:38.571Z,10.77
2023-05-05T00:37:41.552Z,11.18
2023-05-05T00:38:44.415Z,10.85
2023-05-05T00:39:46.993Z,8.02
2023-05-05T00:40:50.077Z,10.49
2023-05-05T00:41:52.730Z,21.73
2023-05-05T00:42:55.460Z,10.75
2023-05-05T00:43:58.236Z,9.05
2023-05-05T00:45:00.847Z,7.56
2023-05-05T00:46:03.738Z,5.08
2023-05-05T00:47:06.419Z,9.32
2023-05-05T00:48:09.087Z,6.87
2023-05-05T00:49:11.887Z,9.73
2023-05-05T00:50:14.527Z,9.98
2023-05-05T00:51:17.279Z,10.60
2023-05-05T00:52:20.066Z,11.09
2023-05-05T00:53:23.050Z,9.09
2023-05-05T00:54:25.710Z,12.75
2023-05-05T00:55:28.254Z,15.40
2023-05-05T00:56:31.237Z,10.70
2023-05-05T00:57:34.021Z,6.83
2023-05-05T00:58:36.894Z,9.95
2023-05-05T00:59:39.761Z,11.88
2023-05-05T01:00:42.660Z,9.70
2023-05-05T01:01:45.613Z,8.28
2023-05-05T01:02:48.419Z,11.96
2023-05-05T01:03:51.321Z,7.39
2023-05-05T01:04:54.138Z,9.31
2023-05-05T01:05:57.123Z,8.82
2023-05-05T01:07:00.288Z,6.95
2023-05-05T01:08:03.077Z,7.32
2023-05-05T01:09:05.941Z,8.77
2023-05-05T01:10:19.741Z,11.03
2023-05-05T01:11:13.220Z,9.12
2023-05-05T01:12:15.891Z,8.23
2023-05-05T01:13:18.766Z,8.86
2023-05-05T01:14:21.640Z,8.14
2023-05-05T01:15:24.522Z,6.58
2023-05-05T01:16:27.359Z,8.31
2023-05-05T01:17:30.604Z,8.75
2023-05-05T01:18:33.355Z,8.42
2023-05-05T01:19:36.224Z,8.81
2023-05-05T01:20:39.403Z,6.94
2023-05-05T01:21:41.972Z,9.50
2023-05-05T01:22:45.052Z,11.83
2023-05-05T01:23:47.858Z,8.72
2023-05-05T01:24:50.697Z,7.75
2023-05-05T01:25:53.992Z,8.18
2023-05-05T01:26:57.054Z,7.68
2023-05-05T01:28:00.155Z,5.45
2023-05-05T01:29:02.924Z,8.27
2023-05-05T01:30:05.902Z,11.88
2023-05-05T01:31:08.815Z,5.45
2023-05-05T01:32:11.640Z,5.80
2023-05-05T01:33:14.618Z,4.51
2023-05-05T01:34:17.283Z,7.32
2023-05-05T01:35:23.226Z,5.99
2023-05-05T01:36:26.108Z,6.34
2023-05-05T01:37:28.881Z,6.92
2023-05-05T01:38:31.650Z,5.58
2023-05-05T01:39:34.419Z,4.21
2023-05-05T01:40:36.993Z,4.63
2023-05-05T01:41:39.564Z,5.17
2023-05-05T01:42:42.234Z,4.87
2023-05-05T01:43:45.212Z,6.28
2023-05-05T01:44:47.775Z,3.79
2023-05-05T01:45:50.349Z,4.99
2023-05-05T01:46:53.016Z,6.62
2023-05-05T01:47:55.965Z,5.36
2023-05-05T01:48:58.794Z,5.22
2023-05-05T01:50:01.654Z,4.68
2023-05-05T01:51:11.295Z,3.88
2023-05-05T01:52:14.042Z,3.65
2023-05-05T01:53:17.016Z,4.07
2023-05-05T01:54:20.093Z,6.22
2023-05-05T01:55:22.766Z,5.95
2023-05-05T01:56:25.635Z,6.30
2023-05-05T01:57:28.517Z,5.52
2023-05-05T01:58:31.491Z,5.51
2023-05-05T01:59:34.160Z,4.03
2023-05-05T02:00:37.135Z,4.19
2023-05-05T02:01:39.979Z,5.48
2023-05-05T02:02:42.872Z,4.15
2023-05-05T02:03:45.467Z,5.87
2023-05-05T02:04:48.018Z,4.84
2023-05-05T02:05:50.804Z,4.37
2023-05-05T02:06:53.432Z,4.49
2023-05-05T02:07:56.032Z,3.48
2023-05-05T02:08:58.906Z,5.33
2023-05-05T02:10:01.988Z,3.76
2023-05-05T02:11:04.662Z,3.93
2023-05-05T02:12:07.421Z,3.95
2023-05-05T02:13:10.213Z,6.70
2023-05-05T02:14:12.865Z,3.34
2023-05-05T02:15:15.842Z,5.42
2023-05-05T02:16:18.733Z,4.80
2023-05-05T02:17:21.397Z,7.26
2023-05-05T02:18:24.060Z,5.46
2023-05-05T02:19:26.735Z,4.69
2023-05-05T02:20:29.603Z,5.13
2023-05-05T02:21:32.176Z,5.64
2023-05-05T02:22:34.848Z,8.94
2023-05-05T02:23:37.414Z,4.82
2023-05-05T02:24:39.881Z,4.63
2023-05-05T02:25:42.749Z,4.05
2023-05-05T02:26:45.524Z,4.87
2023-05-05T02:27:48.208Z,4.08
2023-05-05T02:28:50.963Z,4.02
2023-05-05T02:29:53.637Z,4.14
2023-05-05T02:30:56.543Z,4.12
2023-05-05T02:31:59.283Z,3.74
2023-05-05T02:33:02.048Z,4.85
2023-05-05T02:34:04.724Z,4.80
2023-05-05T02:35:07.396Z,4.30
2023-05-05T02:36:10.065Z,4.82
2023-05-05T02:37:12.744Z,5.87
2023-05-05T02:38:15.411Z,4.35
2023-05-05T02:39:18.095Z,5.13
2023-05-05T02:40:20.750Z,5.63
2023-05-05T02:41:23.839Z,3.73
2023-05-05T02:42:26.712Z,5.84
2023-05-05T02:43:29.580Z,3.56
2023-05-05T02:44:32.449Z,4.65
2023-05-05T02:45:35.314Z,11.28
2023-05-05T02:46:38.256Z,5.26
2023-05-05T02:47:41.128Z,4.28
2023-05-05T02:48:43.944Z,3.46
2023-05-05T02:49:46.817Z,7.88
2023-05-05T02:50:49.703Z,5.32
2023-05-05T02:51:52.575Z,4.65
2023-05-05T02:52:55.462Z,4.16
2023-05-05T02:53:58.330Z,4.78
2023-05-05T02:55:01.191Z,3.71
2023-05-05T02:56:04.063Z,4.59
2023-05-05T02:57:07.050Z,5.75
2023-05-05T02:58:09.813Z,5.83
2023-05-05T02:59:15.269Z,5.47
2023-05-05T03:00:17.119Z,4.00
2023-05-05T03:01:20.097Z,4.11
2023-05-05T03:02:23.205Z,5.05
2023-05-05T03:03:26.146Z,4.55
2023-05-05T03:04:29.117Z,5.35
2023-05-05T03:05:31.997Z,4.60
2023-05-05T03:06:34.964Z,3.85
2023-05-05T03:07:38.142Z,4.52
2023-05-05T03:08:41.224Z,4.23
2023-05-05T03:09:43.798Z,4.92
2023-05-05T03:10:46.466Z,7.65
2023-05-05T03:11:49.238Z,7.41
2023-05-05T03:12:51.835Z,5.99
2023-05-05T03:13:54.477Z,5.46
2023-05-05T03:14:57.345Z,7.29
2023-05-05T03:16:00.386Z,4.82
2023-05-05T03:17:03.221Z,3.36
2023-05-05T03:18:06.340Z,3.45
2023-05-05T03:19:09.158Z,2.38
2023-05-05T03:20:12.025Z,3.45
2023-05-05T03:21:15.011Z,4.10
2023-05-05T03:22:17.772Z,4.38
2023-05-05T03:23:20.793Z,7.28
2023-05-05T03:24:23.630Z,3.99
2023-05-05T03:25:26.603Z,4.25
2023-05-05T03:26:29.479Z,3.39
2023-05-05T03:27:32.385Z,3.82
2023-05-05T03:28:35.127Z,3.72
2023-05-05T03:29:37.902Z,3.89
2023-05-05T03:30:40.574Z,4.06
2023-05-05T03:31:43.184Z,3.65
2023-05-05T03:32:45.853Z,4.11
2023-05-05T03:33:48.798Z,8.26
2023-05-05T03:34:51.355Z,9.88
2023-05-05T03:35:53.929Z,6.87
2023-05-05T03:36:56.484Z,6.91
2023-05-05T03:37:59.160Z,7.84
2023-05-05T03:39:01.923Z,3.98
2023-05-05T03:40:05.025Z,4.38
2023-05-05T03:41:08.102Z,4.57
2023-05-05T03:42:11.071Z,4.93
2023-05-05T03:43:13.777Z,5.41
2023-05-05T03:44:16.713Z,5.26
2023-05-05T03:45:19.688Z,3.90
2023-05-05T03:46:22.767Z,6.72
2023-05-05T03:47:25.693Z,5.26
2023-05-05T03:48:28.516Z,5.85
2023-05-05T03:49:31.391Z,6.83
2023-05-05T03:50:34.291Z,6.47
2023-05-05T03:51:37.144Z,5.03
2023-05-05T03:52:40.017Z,4.30
2023-05-05T03:53:42.893Z,7.40
2023-05-05T03:54:45.455Z,5.92
2023-05-05T03:55:48.235Z,5.25
2023-05-05T03:56:51.103Z,4.75
2023-05-05T03:57:53.984Z,4.48
2023-05-05T03:58:56.753Z,11.98
2023-05-05T03:59:59.537Z,6.82
2023-05-05T04:01:02.300Z,3.78
2023-05-05T04:02:04.992Z,6.18
2023-05-05T04:03:07.844Z,5.69
2023-05-05T04:04:10.794Z,5.77
2023-05-05T04:05:13.384Z,7.86
2023-05-05T04:06:16.063Z,9.60
2023-05-05T04:07:19.015Z,6.41
2023-05-05T04:08:23.619Z,5.63
2023-05-05T04:09:26.506Z,8.24
2023-05-05T04:10:29.282Z,7.08
2023-05-05T04:11:32.275Z,6.18
2023-05-05T04:12:35.364Z,5.61
2023-05-05T04:13:38.312Z,7.84
2023-05-05T04:14:41.198Z,8.99
2023-05-05T04:15:43.914Z,5.97
2023-05-05T04:16:50.212Z,7.74
2023-05-05T04:17:53.450Z,7.32
2023-05-05T04:18:56.577Z,5.55
2023-05-05T04:19:59.766Z,7.35
2023-05-05T04:21:04.172Z,6.76
2023-05-05T04:22:07.459Z,7.49
2023-05-05T04:23:12.681Z,6.84
2023-05-05T04:24:15.557Z,4.51
2023-05-05T04:25:18.740Z,5.81
2023-05-05T04:26:21.827Z,6.35
2023-05-05T04:27:24.799Z,7.94
2023-05-05T04:28:27.568Z,7.87
2023-05-05T04:29:30.554Z,8.18
2023-05-05T04:30:33.552Z,9.35
2023-05-05T04:31:36.440Z,7.05
2023-05-05T04:32:39.399Z,7.08
2023-05-05T04:33:42.259Z,5.40
2023-05-05T04:34:45.325Z,8.91
2023-05-05T04:35:48.557Z,8.28
2023-05-05T04:36:51.944Z,8.17
2023-05-05T04:37:55.486Z,7.96
2023-05-05T04:38:58.631Z,8.95
2023-05-05T04:40:01.654Z,8.27
2023-05-05T04:41:04.832Z,7.94
2023-05-05T04:42:07.907Z,6.32
2023-05-05T04:43:11.297Z,5.18
2023-05-05T04:44:14.516Z,5.52
2023-05-05T04:45:17.761Z,6.32
2023-05-05T04:46:21.081Z,5.58
2023-05-05T04:47:24.452Z,5.44
2023-05-05T04:48:27.405Z,7.52
2023-05-05T04:49:30.590Z,8.46
2023-05-05T04:50:33.879Z,6.15
2023-05-05T04:51:37.466Z,7.15
2023-05-05T04:52:47.920Z,7.60
2023-05-05T04:53:50.903Z,9.57
2023-05-05T04:54:54.180Z,9.69
2023-05-05T04:55:57.153Z,8.84
2023-05-05T04:56:59.827Z,9.17
2023-05-05T04:58:02.919Z,7.85
2023-05-05T04:59:05.986Z,9.07
2023-05-05T05:00:09.377Z,6.94
2023-05-05T05:01:12.351Z,6.25
2023-05-05T05:02:15.366Z,5.30
2023-05-05T05:03:18.603Z,6.22
2023-05-05T05:04:21.599Z,7.31
2023-05-05T05:05:23.798Z,7.76
2023-05-05T05:06:26.625Z,7.22
2023-05-05T05:07:29.918Z,4.66
2023-05-05T05:08:33.398Z,8.46
2023-05-05T05:09:36.677Z,10.10
2023-05-05T05:10:39.877Z,7.99
2023-05-05T05:11:43.259Z,9.16
2023-05-05T05:12:46.676Z,9.32
2023-05-05T05:13:49.917Z,7.01
2023-05-05T05:14:52.911Z,9.26
2023-05-05T05:15:55.875Z,6.89
2023-05-05T05:16:59.052Z,7.17
2023-05-05T05:18:04.109Z,8.66
2023-05-05T05:19:07.364Z,7.29
2023-05-05T05:20:10.808Z,6.74
2023-05-05T05:21:13.827Z,6.06
2023-05-05T05:22:16.606Z,6.76
2023-05-05T05:23:19.483Z,8.42
2023-05-05T05:24:22.561Z,6.38
2023-05-05T05:25:25.327Z,6.15
2023-05-05T05:26:28.302Z,6.75
2023-05-05T05:27:33.044Z,6.27
2023-05-05T05:28:35.796Z,7.76
2023-05-05T05:29:38.879Z,7.75
2023-05-05T05:30:41.752Z,7.39
2023-05-05T05:31:44.581Z,6.45
2023-05-05T05:32:47.407Z,7.14
2023-05-05T05:33:50.165Z,8.38
2023-05-05T05:34:53.158Z,7.92
2023-05-05T05:35:55.921Z,8.05
2023-05-05T05:36:58.791Z,8.46
2023-05-05T05:38:01.565Z,7.62
2023-05-05T05:39:12.745Z,10.12
2023-05-05T05:40:15.929Z,7.69
2023-05-05T05:41:18.891Z,8.15
2023-05-05T05:42:21.663Z,7.13
2023-05-05T05:43:24.427Z,6.86
2023-05-05T05:44:27.615Z,8.75
2023-05-05T05:45:31.104Z,9.06
2023-05-05T05:46:34.538Z,9.38
2023-05-05T05:47:37.597Z,8.61
2023-05-05T05:48:40.650Z,7.66
2023-05-05T05:49:43.838Z,7.96
2023-05-05T05:50:47.321Z,9.39
2023-05-05T05:51:54.028Z,9.84
2023-05-05T05:52:57.175Z,8.04
2023-05-05T05:54:00.160Z,7.54
2023-05-05T05:55:03.424Z,7.63
2023-05-05T05:56:06.814Z,8.28
2023-05-05T05:57:11.712Z,8.92
2023-05-05T05:58:15.022Z,10.67
2023-05-05T05:59:18.421Z,10.85
2023-05-05T06:00:21.490Z,11.74
2023-05-05T06:01:24.467Z,8.91
2023-05-05T06:02:27.306Z,9.38
2023-05-05T06:03:30.291Z,9.29
2023-05-05T06:04:33.290Z,7.35
2023-05-05T06:05:36.163Z,7.45
2023-05-05T06:06:39.344Z,7.13
2023-05-05T06:07:42.017Z,7.75
2023-05-05T06:08:44.893Z,6.35
2023-05-05T06:09:47.967Z,9.28
2023-05-05T06:10:50.959Z,6.12
2023-05-05T06:11:54.133Z,8.17
2023-05-05T06:12:57.160Z,7.45
2023-05-05T06:14:00.298Z,8.50
2023-05-05T06:15:03.479Z,8.38
2023-05-05T06:16:06.492Z,7.38
2023-05-05T06:17:10.039Z,6.93
2023-05-05T06:18:13.185Z,9.06
2023-05-05T06:19:16.298Z,8.25
2023-05-05T06:20:19.481Z,10.18
2023-05-05T06:21:22.565Z,14.43
2023-05-05T06:22:25.536Z,8.22
2023-05-05T06:23:28.524Z,9.30
2023-05-05T06:24:31.383Z,9.22
2023-05-05T06:25:34.382Z,9.38
2023-05-05T06:26:37.141Z,9.18
2023-05-05T06:27:42.350Z,10.96
2023-05-05T06:28:45.136Z,8.77
2023-05-05T06:29:47.927Z,6.52
2023-05-05T06:30:50.587Z,8.75
2023-05-05T06:31:53.489Z,9.46
2023-05-05T06:32:56.933Z,7.95
2023-05-05T06:33:59.925Z,10.34
2023-05-05T06:35:02.826Z,9.35
2023-05-05T06:36:06.054Z,9.03
2023-05-05T06:37:09.167Z,7.81
2023-05-05T06:38:12.758Z,10.65
2023-05-05T06:39:16.244Z,8.98
2023-05-05T06:40:19.030Z,7.63
2023-05-05T06:41:22.100Z,12.09
2023-05-05T06:42:24.875Z,11.08
2023-05-05T06:43:30.263Z,10.40
2023-05-05T06:44:33.178Z,9.54
2023-05-05T06:45:36.262Z,12.45
2023-05-05T06:46:39.251Z,10.06
2023-05-05T06:47:42.152Z,8.51
2023-05-05T06:48:45.109Z,8.92
2023-05-05T06:49:47.861Z,9.37
2023-05-05T06:50:50.945Z,10.03
2023-05-05T06:51:53.707Z,7.82
2023-05-05T06:52:56.583Z,8.12
2023-05-05T06:53:59.662Z,10.03
2023-05-05T06:55:02.449Z,10.11
2023-05-05T06:56:05.516Z,9.77
2023-05-05T06:57:08.290Z,9.59
2023-05-05T06:58:11.274Z,11.73
2023-05-05T06:59:14.351Z,11.72
2023-05-05T07:00:17.362Z,9.45
2023-05-05T07:01:21.418Z,8.12
2023-05-05T07:02:26.649Z,10.29
2023-05-05T07:03:28.624Z,14.29
2023-05-05T07:04:31.483Z,9.49
2023-05-05T07:05:34.483Z,12.34
2023-05-05T07:06:37.541Z,11.73
2023-05-05T07:07:40.517Z,11.90
2023-05-05T07:08:43.302Z,13.33
2023-05-05T07:09:46.473Z,7.87
2023-05-05T07:10:49.449Z,11.99
2023-05-05T07:11:52.422Z,12.60
2023-05-05T07:12:55.242Z,13.08
2023-05-05T07:13:57.974Z,10.82
2023-05-05T07:15:09.419Z,11.62
2023-05-05T07:16:05.299Z,12.67
2023-05-05T07:17:08.029Z,9.27
2023-05-05T07:18:10.757Z,11.97
2023-05-05T07:19:13.572Z,12.71
2023-05-05T07:20:16.659Z,12.17
2023-05-05T07:21:19.432Z,10.72
2023-05-05T07:22:22.309Z,11.02
2023-05-05T07:23:25.085Z,10.34
2023-05-05T07:24:28.460Z,10.11
2023-05-05T07:25:31.637Z,10.03
2023-05-05T07:26:34.632Z,8.87
2023-05-05T07:27:37.902Z,13.12
2023-05-05T07:28:40.880Z,11.81
2023-05-05T07:29:43.960Z,8.76
2023-05-05T07:30:47.346Z,8.32
2023-05-05T07:31:50.441Z,9.46
2023-05-05T07:32:53.430Z,13.42
2023-05-05T07:34:04.463Z,13.02
2023-05-05T07:35:07.671Z,11.63
2023-05-05T07:36:10.627Z,12.78
2023-05-05T07:37:13.922Z,12.39
2023-05-05T07:38:16.783Z,10.34
2023-05-05T07:39:19.766Z,11.44
2023-05-05T07:40:22.953Z,10.85
2023-05-05T07:41:26.144Z,11.65
2023-05-05T07:42:29.109Z,11.38
2023-05-05T07:43:32.184Z,12.10
2023-05-05T07:44:35.368Z,12.35
2023-05-05T07:45:38.240Z,13.23
2023-05-05T07:46:43.479Z,11.95
2023-05-05T07:47:46.372Z,12.57
2023-05-05T07:48:49.322Z,11.54
2023-05-05T07:49:54.113Z,11.72
2023-05-05T07:50:57.027Z,13.17
2023-05-05T07:52:00.113Z,9.41
2023-05-05T07:53:13.705Z,13.63
2023-05-05T07:54:07.275Z,14.48
2023-05-05T07:55:10.165Z,12.44
2023-05-05T07:56:12.942Z,11.69
2023-05-05T07:57:15.703Z,10.48
2023-05-05T07:58:18.371Z,8.85
2023-05-05T07:59:21.034Z,8.50
2023-05-05T08:00:23.804Z,11.69
2023-05-05T08:01:26.791Z,11.65
2023-05-05T08:02:30.016Z,12.75
2023-05-05T08:03:32.842Z,10.01
2023-05-05T08:04:35.961Z,11.98
2023-05-05T08:05:39.102Z,9.74
2023-05-05T08:06:41.982Z,9.52
2023-05-05T08:07:44.757Z,10.11
2023-05-05T08:08:47.620Z,11.08
2023-05-05T08:09:55.832Z,10.42
2023-05-05T08:10:58.589Z,10.96
2023-05-05T08:12:01.387Z,11.48
2023-05-05T08:13:04.270Z,12.53
2023-05-05T08:14:07.016Z,12.29
2023-05-05T08:15:10.337Z,10.65
2023-05-05T08:16:13.326Z,12.45
2023-05-05T08:17:19.254Z,10.62
2023-05-05T08:18:22.405Z,11.69
2023-05-05T08:19:29.240Z,12.54
2023-05-05T08:20:29.935Z,10.05
2023-05-05T08:21:32.981Z,11.49
2023-05-05T08:22:35.958Z,9.73
2023-05-05T08:23:39.152Z,9.07
2023-05-05T08:24:42.419Z,10.59
2023-05-05T08:25:45.295Z,10.65
2023-05-05T08:26:48.088Z,10.52
2023-05-05T08:27:51.147Z,8.78
2023-05-05T08:28:54.434Z,9.29
2023-05-05T08:29:57.518Z,11.42
2023-05-05T08:31:00.638Z,9.10
2023-05-05T08:32:03.364Z,10.80
2023-05-05T08:33:06.164Z,8.18
2023-05-05T08:34:08.910Z,13.11
2023-05-05T08:35:12.384Z,14.25
2023-05-05T08:36:15.378Z,10.79
2023-05-05T08:37:18.041Z,9.34
2023-05-05T08:38:20.711Z,12.34
2023-05-05T08:39:23.692Z,13.32
2023-05-05T08:40:26.563Z,11.39
2023-05-05T08:41:29.336Z,10.04
2023-05-05T08:42:37.066Z,10.49
2023-05-05T08:43:36.928Z,9.79
2023-05-05T08:44:40.213Z,10.48
2023-05-05T08:45:43.206Z,11.87
2023-05-05T08:46:46.288Z,13.29
2023-05-05T08:47:49.144Z,12.07
2023-05-05T08:48:52.320Z,13.41
2023-05-05T08:49:55.704Z,10.18
2023-05-05T08:50:59.840Z,12.06
2023-05-05T08:52:03.517Z,12.78
2023-05-05T08:53:06.731Z,11.03
2023-05-05T08:54:09.454Z,13.45
2023-05-05T08:55:12.131Z,9.54
2023-05-05T08:56:14.902Z,10.91
2023-05-05T08:57:17.671Z,11.93
2023-05-05T08:58:20.446Z,10.44
2023-05-05T08:59:23.337Z,10.98
2023-05-05T09:00:26.321Z,11.26
2023-05-05T09:01:29.144Z,10.25
2023-05-05T09:02:31.896Z,11.21
2023-05-05T09:03:34.627Z,11.07
2023-05-05T09:04:37.283Z,9.38
2023-05-05T09:05:43.432Z,12.93
2023-05-05T09:06:46.206Z,12.11
2023-05-05T09:07:48.985Z,11.58
2023-05-05T09:08:51.661Z,12.34
2023-05-05T09:09:54.519Z,11.58
2023-05-05T09:10:57.504Z,12.45
2023-05-05T09:12:00.577Z,11.52
2023-05-05T09:13:03.579Z,11.28
2023-05-05T09:14:06.637Z,13.29
2023-05-05T09:15:09.891Z,12.63
2023-05-05T09:16:13.336Z,12.79
2023-05-05T09:17:16.386Z,12.68
2023-05-05T09:18:19.371Z,13.41
2023-05-05T09:19:22.441Z,10.93
2023-05-05T09:20:25.525Z,14.35
2023-05-05T09:21:28.809Z,14.04
2023-05-05T09:22:31.784Z,11.65
2023-05-05T09:23:35.586Z,11.34
2023-05-05T09:24:38.576Z,13.36
2023-05-05T09:25:41.635Z,11.35
2023-05-05T09:26:44.630Z,13.12
2023-05-05T09:27:47.608Z,13.67
2023-05-05T09:28:50.571Z,13.06
2023-05-05T09:29:53.218Z,13.17
2023-05-05T09:30:57.440Z,13.93
2023-05-05T09:32:00.730Z,13.15
2023-05-05T09:33:03.884Z,12.74
2023-05-05T09:34:06.885Z,11.24
2023-05-05T09:35:10.107Z,13.76
2023-05-05T09:36:13.044Z,12.75
2023-05-05T09:37:16.435Z,11.02
2023-05-05T09:38:19.617Z,14.18
2023-05-05T09:39:22.797Z,9.85
2023-05-05T09:40:25.880Z,11.28
2023-05-05T09:41:28.972Z,13.49
2023-05-05T09:42:33.792Z,13.39
2023-05-05T09:43:36.758Z,8.62
2023-05-05T09:44:39.733Z,8.69
2023-05-05T09:45:42.715Z,10.94
2023-05-05T09:46:45.541Z,12.23
2023-05-05T09:47:48.436Z,12.65
2023-05-05T09:48:51.556Z,11.32
2023-05-05T09:49:54.732Z,11.75
2023-05-05T09:50:57.592Z,9.82
2023-05-05T09:52:00.573Z,10.91
2023-05-05T09:53:03.963Z,12.03
2023-05-05T09:54:06.942Z,11.21
2023-05-05T09:55:10.023Z,11.91
2023-05-05T09:56:12.996Z,11.24
2023-05-05T09:57:16.279Z,12.55
2023-05-05T09:58:19.731Z,10.75
2023-05-05T09:59:22.960Z,10.04
2023-05-05T10:00:26.022Z,11.02
2023-05-05T10:01:29.158Z,11.85
2023-05-05T10:02:32.443Z,10.40
2023-05-05T10:03:35.500Z,11.82
2023-05-05T10:04:38.356Z,11.08
2023-05-05T10:05:41.318Z,15.52
2023-05-05T10:06:44.199Z,10.13
2023-05-05T10:07:46.886Z,10.38
2023-05-05T10:08:49.952Z,12.32
2023-05-05T10:09:52.718Z,12.06
2023-05-05T10:10:55.483Z,12.64
2023-05-05T10:11:59.382Z,11.82
2023-05-05T10:13:02.076Z,11.39
2023-05-05T10:14:05.027Z,9.20
2023-05-05T10:15:07.807Z,8.57
2023-05-05T10:16:10.618Z,11.52
2023-05-05T10:17:13.349Z,12.79
2023-05-05T10:18:16.083Z,13.97
2023-05-05T10:19:18.887Z,11.67
2023-05-05T10:20:21.777Z,11.54
2023-05-05T10:21:24.548Z,10.54
2023-05-05T10:22:27.414Z,10.75
2023-05-05T10:23:30.285Z,11.16
2023-05-05T10:24:33.476Z,17.22
2023-05-05T10:25:36.445Z,14.35
2023-05-05T10:26:39.424Z,11.45
2023-05-05T10:27:42.299Z,16.06
2023-05-05T10:28:45.276Z,12.93
2023-05-05T10:29:50.345Z,11.90
2023-05-05T10:30:53.293Z,9.67
2023-05-05T10:31:56.211Z,11.53
2023-05-05T10:33:14.121Z,12.89
2023-05-05T10:34:05.963Z,17.12
2023-05-05T10:35:09.310Z,12.76
2023-05-05T10:36:14.049Z,12.13
2023-05-05T10:37:16.774Z,11.73
2023-05-05T10:38:19.855Z,10.50
2023-05-05T10:39:22.939Z,12.31
2023-05-05T10:40:26.034Z,15.69
2023-05-05T10:41:28.995Z,12.48
2023-05-05T10:42:31.969Z,9.88
2023-05-05T10:43:34.948Z,11.08
2023-05-05T10:44:38.132Z,11.19
2023-05-05T10:45:41.375Z,10.73
2023-05-05T10:46:44.686Z,11.49
2023-05-05T10:47:47.932Z,10.59
2023-05-05T10:48:50.944Z,12.45
2023-05-05T10:49:53.941Z,11.55
2023-05-05T10:50:57.022Z,10.82
2023-05-05T10:51:59.889Z,11.91
2023-05-05T10:53:02.870Z,10.70
2023-05-05T10:54:06.010Z,11.01
2023-05-05T10:55:09.134Z,12.10
2023-05-05T10:56:12.514Z,12.42
2023-05-05T10:57:15.495Z,13.76
2023-05-05T10:58:18.467Z,11.87
2023-05-05T10:59:21.548Z,11.06
2023-05-05T11:00:24.528Z,14.31
2023-05-05T11:01:27.706Z,12.57
2023-05-05T11:02:30.734Z,10.26
2023-05-05T11:03:33.825Z,11.63
2023-05-05T11:04:36.846Z,13.20
2023-05-05T11:05:40.333Z,13.00
2023-05-05T11:06:43.620Z,12.39
2023-05-05T11:07:46.299Z,13.45
2023-05-05T11:08:49.061Z,15.55
2023-05-05T11:09:51.723Z,11.54
2023-05-05T11:10:54.503Z,10.68
2023-05-05T11:11:57.277Z,12.65
2023-05-05T11:13:00.095Z,12.83
2023-05-05T11:14:02.920Z,12.28
2023-05-05T11:15:05.591Z,12.42
2023-05-05T11:16:08.399Z,12.48
2023-05-05T11:17:11.032Z,14.85
2023-05-05T11:18:13.955Z,11.55
2023-05-05T11:19:16.677Z,11.33
2023-05-05T11:20:19.345Z,15.57
2023-05-05T11:21:22.139Z,14.62
2023-05-05T11:22:25.510Z,14.08
2023-05-05T11:23:28.687Z,11.63
2023-05-05T11:24:31.992Z,13.22
2023-05-05T11:25:34.975Z,14.61
2023-05-05T11:26:37.925Z,14.32
2023-05-05T11:27:54.633Z,12.28
2023-05-05T11:28:57.298Z,14.21
2023-05-05T11:29:59.964Z,14.27
2023-05-05T11:31:02.761Z,10.65
2023-05-05T11:32:05.813Z,10.32
2023-05-05T11:33:09.106Z,12.72
2023-05-05T11:34:12.083Z,14.30
2023-05-05T11:35:15.256Z,11.98
2023-05-05T11:36:18.354Z,11.67
2023-05-05T11:37:23.466Z,11.46
2023-05-05T11:38:26.751Z,11.93
2023-05-05T11:39:29.724Z,12.81
2023-05-05T11:40:32.804Z,14.53
2023-05-05T11:41:35.886Z,16.26
2023-05-05T11:42:38.964Z,14.55
2023-05-05T11:43:42.160Z,13.91
2023-05-05T11:44:45.244Z,11.12
2023-05-05T11:45:48.172Z,12.97
2023-05-05T11:46:51.142Z,13.08
2023-05-05T11:47:55.026Z,11.43
2023-05-05T11:48:57.960Z,11.39
2023-05-05T11:50:01.240Z,14.62
2023-05-05T11:51:04.315Z,14.82
2023-05-05T11:52:07.408Z,12.65
2023-05-05T11:53:10.474Z,14.73
2023-05-05T11:54:13.755Z,16.28
2023-05-05T11:55:17.036Z,12.78
2023-05-05T11:56:20.139Z,11.20
2023-05-05T11:57:22.998Z,11.80
2023-05-05T11:58:25.685Z,12.53
2023-05-05T11:59:28.661Z,14.69
2023-05-05T12:00:32.458Z,10.86
2023-05-05T12:01:35.313Z,13.41
2023-05-05T12:02:38.198Z,11.97
2023-05-05T12:03:41.374Z,16.85
2023-05-05T12:04:44.681Z,12.83
2023-05-05T12:05:47.632Z,11.83
2023-05-05T12:06:50.616Z,11.51
2023-05-05T12:07:53.584Z,12.13
2023-05-05T12:08:56.571Z,11.45
2023-05-05T12:10:05.015Z,10.28
2023-05-05T12:11:09.977Z,13.96
2023-05-05T12:12:12.975Z,13.86
2023-05-05T12:13:15.861Z,12.04
2023-05-05T12:14:19.247Z,14.29
2023-05-05T12:15:22.109Z,13.15
2023-05-05T12:16:25.025Z,9.53
2023-05-05T12:17:27.968Z,12.18
2023-05-05T12:18:31.343Z,11.62
2023-05-05T12:19:34.317Z,11.08
2023-05-05T12:20:37.500Z,11.72
2023-05-05T12:21:42.197Z,12.88
2023-05-05T12:22:45.105Z,13.10
2023-05-05T12:23:48.178Z,14.80
2023-05-05T12:24:52.801Z,17.16
2023-05-05T12:25:56.279Z,13.14
2023-05-05T12:26:59.262Z,14.61
2023-05-05T12:28:02.146Z,10.92
2023-05-05T12:29:04.912Z,10.78
2023-05-05T12:30:09.680Z,12.98
2023-05-05T12:31:12.821Z,15.79
2023-05-05T12:32:15.876Z,13.09
2023-05-05T12:33:22.245Z,12.19
2023-05-05T12:34:25.215Z,11.03
2023-05-05T12:35:28.190Z,12.66
2023-05-05T12:36:31.379Z,10.04
2023-05-05T12:37:34.353Z,13.89
2023-05-05T12:38:37.537Z,10.88
2023-05-05T12:39:41.945Z,12.76
2023-05-05T12:40:44.533Z,13.69
2023-05-05T12:41:47.499Z,11.97
2023-05-05T12:42:52.822Z,14.12
2023-05-05T12:43:55.811Z,14.93
2023-05-05T12:44:58.775Z,13.75
2023-05-05T12:46:01.955Z,13.78
2023-05-05T12:47:05.451Z,12.12
2023-05-05T12:48:08.846Z,14.99
2023-05-05T12:49:11.917Z,14.94
2023-05-05T12:50:14.696Z,12.72
2023-05-05T12:51:17.671Z,12.28
2023-05-05T12:52:22.182Z,10.95
2023-05-05T12:53:26.181Z,13.21
2023-05-05T12:54:29.155Z,13.03
2023-05-05T12:55:32.139Z,13.58
2023-05-05T12:56:35.036Z,13.34
2023-05-05T12:57:37.580Z,9.63
2023-05-05T12:58:40.758Z,11.72
2023-05-05T12:59:43.425Z,14.00
2023-05-05T13:00:46.115Z,12.42
2023-05-05T13:01:48.689Z,11.58
2023-05-05T13:02:51.590Z,12.22
2023-05-05T13:04:00.004Z,14.98
2023-05-05T13:05:02.715Z,14.64
2023-05-05T13:06:05.385Z,11.80
2023-05-05T13:07:08.068Z,11.75
2023-05-05T13:08:10.724Z,13.16
2023-05-05T13:09:15.940Z,13.79
2023-05-05T13:10:20.046Z,11.45
2023-05-05T13:11:22.629Z,12.27
2023-05-05T13:12:25.501Z,11.69
2023-05-05T13:13:28.270Z,12.38
2023-05-05T13:14:33.708Z,12.83
2023-05-05T13:15:36.426Z,10.76
2023-05-05T13:16:39.046Z,10.42
2023-05-05T13:17:41.741Z,11.26
2023-05-05T13:18:44.838Z,12.87
2023-05-05T13:19:47.578Z,12.24
2023-05-05T13:20:50.243Z,14.07
2023-05-05T13:21:52.922Z,14.78
2023-05-05T13:22:55.484Z,11.92
2023-05-05T13:24:08.164Z,12.65
2023-05-05T13:25:02.571Z,15.09
2023-05-05T13:26:05.230Z,10.82
2023-05-05T13:27:07.993Z,13.45
2023-05-05T13:28:10.978Z,13.43
2023-05-05T13:29:14.164Z,13.45
2023-05-05T13:30:18.269Z,10.82
2023-05-05T13:31:21.565Z,11.29
2023-05-05T13:32:24.369Z,13.43
2023-05-05T13:33:27.287Z,13.84
2023-05-05T13:34:30.609Z,11.82
2023-05-05T13:35:33.452Z,11.24
2023-05-05T13:36:36.435Z,15.26
2023-05-05T13:37:39.301Z,11.55
2023-05-05T13:38:45.201Z,10.81
2023-05-05T13:39:48.122Z,13.71
2023-05-05T13:40:51.001Z,13.57
2023-05-05T13:41:53.769Z,12.82
2023-05-05T13:42:56.443Z,15.44
2023-05-05T13:43:59.110Z,13.00
2023-05-05T13:45:01.886Z,15.11
2023-05-05T13:46:22.212Z,12.04